Pensacola NAS, Florida
Current Conditions -  °F | °C
As of 10:56 PM on Friday 19 Dec 2014 (Local Time) from KNPA Reporting Station
Overcast Overcast  
Wind Chill: 50°   Ceiling: 4300
Heat Index: 50°   Visibility: 10mi
Dew Point: 47°   Wind: 12mph
Humidity: 89%   Direction: 40°NE
Pressure: 30.1"   Gusts: NA
Location:  30.35°N, 87.32°W
Report Text: KNPA 200456Z 04010KT 10SM FEW010 SCT021 OVC043 10/08 A3010 RMK AO2 SLP193 T01000083
Loading
Personal Weather Stations






























Interactive Weather Map New forecast layout! Learn more

10-Day Weather Forecast

Advertisements
Track Severe Weather on mobile